Time;durP1;ratioP1;P1;durP2;ratioP2;P2;SDS_P1;SDS_P2;PMS_P1;PMS_P2;Temp;Humidity;BMP_temperature;BMP_pressure;BME280_temperature;BME280_humidity;BME280_pressure;Samples;Min_cycle;Max_cycle;Signal;HPM_P1;HPM_P2
2022/08/22 00:02:03;;;;;;;0.60;0.60;;;17.50;99.90;;;;;;4446883;32;20060;-69
2022/08/22 00:04:40;;;;;;;0.75;0.75;;;17.40;99.90;;;;;;4457187;32;20507;-69
2022/08/22 00:07:26;;;;;;;0.70;0.70;;;17.40;99.90;;;;;;4441103;32;20061;-69
2022/08/22 00:10:00;;;;;;;2.17;0.95;;;17.40;99.90;;;;;;4448190;32;20069;-69
2022/08/22 00:12:46;;;;;;;0.75;0.75;;;17.40;99.90;;;;;;4449457;32;20069;-69
2022/08/22 00:15:27;;;;;;;0.40;0.40;;;17.40;99.90;;;;;;4446688;32;20378;-69
2022/08/22 00:18:01;;;;;;;4.93;1.05;;;17.30;99.90;;;;;;4451130;32;20077;-69
2022/08/22 00:20:35;;;;;;;2.67;0.75;;;17.30;99.90;;;;;;4453423;32;20085;-68
2022/08/22 00:23:26;;;;;;;0.85;0.65;;;17.40;99.90;;;;;;4450363;32;20100;-69
2022/08/22 00:26:00;;;;;;;1.10;0.57;;;17.40;99.90;;;;;;4445394;32;20080;-69
2022/08/22 00:28:37;;;;;;;0.57;0.57;;;17.40;99.90;;;;;;4446655;32;20398;-69
2022/08/22 00:31:23;;;;;;;0.43;0.43;;;17.20;99.90;;;;;;4447299;32;20077;-69
2022/08/22 00:34:03;;;;;;;1.87;0.88;;;17.10;99.90;;;;;;4449507;32;20092;-69
2022/08/22 00:36:42;;;;;;;0.85;0.85;;;17.00;99.90;;;;;;4440131;32;20073;-69
2022/08/22 00:39:21;;;;;;;0.30;0.30;;;17.00;99.90;;;;;;4449661;32;20060;-69
2022/08/22 00:42:07;;;;;;;0.68;0.65;;;17.00;99.90;;;;;;4445981;32;20424;-69
2022/08/22 00:45:02;;;;;;;1.40;0.88;;;16.90;99.90;;;;;;4450007;32;20084;-69
2022/08/22 00:47:58;;;;;;;1.42;1.12;;;17.00;99.90;;;;;;4442748;32;20077;-69
2022/08/22 00:50:39;;;;;;;2.12;0.98;;;17.00;99.90;;;;;;4451295;32;20072;-69
2022/08/22 00:53:17;;;;;;;0.65;0.65;;;16.90;99.90;;;;;;4446481;32;20419;-69
2022/08/22 00:56:14;;;;;;;0.65;0.65;;;16.70;99.90;;;;;;4448313;32;20516;-69
2022/08/22 00:59:12;;;;;;;1.70;0.65;;;16.70;99.90;;;;;;4444863;32;20076;-69
2022/08/22 01:01:53;;;;;;;0.60;0.60;;;16.80;99.90;;;;;;4442307;32;20061;-68
2022/08/22 01:04:33;;;;;;;0.70;0.70;;;16.80;99.90;;;;;;4449944;32;20067;-69
2022/08/22 01:07:07;;;;;;;0.50;0.50;;;16.90;99.90;;;;;;4438794;32;20088;-68
2022/08/22 01:09:58;;;;;;;0.95;0.77;;;16.90;99.90;;;;;;4443229;32;20085;-68
2022/08/22 01:12:41;;;;;;;0.60;0.60;;;16.80;99.90;;;;;;4448786;32;20749;-69
2022/08/22 01:15:10;;;;;;;0.70;0.62;;;16.80;99.90;;;;;;4445458;32;20568;-68
2022/08/22 01:17:57;;;;;;;1.12;1.02;;;16.70;99.90;;;;;;4447513;32;20105;-68
2022/08/22 01:21:02;;;;;;;0.70;0.70;;;16.80;99.90;;;;;;4442620;32;20069;-69
2022/08/22 01:24:06;;;;;;;0.50;0.50;;;16.80;99.90;;;;;;4446542;32;20454;-69
2022/08/22 01:27:09;;;;;;;1.00;0.95;;;16.70;99.90;;;;;;4443989;32;20072;-69
2022/08/22 01:30:05;;;;;;;0.45;0.45;;;16.60;99.90;;;;;;4443027;32;20456;-69
2022/08/22 01:33:11;;;;;;;4.57;1.23;;;16.60;99.90;;;;;;4440970;32;20084;-69
2022/08/22 01:36:05;;;;;;;0.50;0.50;;;16.70;99.90;;;;;;4422093;32;20088;-69
2022/08/22 01:39:10;;;;;;;0.40;0.40;;;16.80;99.90;;;;;;4434639;32;20086;-69
2022/08/22 01:42:04;;;;;;;0.35;0.35;;;16.70;99.90;;;;;;4431784;32;20450;-69
2022/08/22 01:44:40;;;;;;;0.90;0.77;;;16.60;99.90;;;;;;4434212;32;20080;-69
2022/08/22 01:47:13;;;;;;;0.62;0.62;;;16.60;99.90;;;;;;4445114;32;20061;-69
2022/08/22 01:49:45;;;;;;;9.68;1.05;;;16.50;99.90;;;;;;4447778;32;20073;-68
2022/08/22 01:52:15;;;;;;;0.55;0.55;;;16.50;99.90;;;;;;4451848;32;20061;-68
2022/08/22 01:54:48;;;;;;;0.67;0.67;;;16.40;99.90;;;;;;4446005;32;20088;-68
2022/08/22 01:57:16;;;;;;;0.82;0.45;;;16.40;99.90;;;;;;4444333;32;20174;-68
2022/08/22 01:59:46;;;;;;;1.45;0.85;;;16.50;99.90;;;;;;4446601;32;20097;-69
2022/08/22 02:02:20;;;;;;;0.82;0.82;;;16.40;99.90;;;;;;4447027;32;20048;-69
2022/08/22 02:05:26;;;;;;;0.68;0.68;;;16.40;99.90;;;;;;4445224;32;20117;-69
2022/08/22 02:08:17;;;;;;;0.93;0.70;;;16.30;99.90;;;;;;4430369;32;20079;-68
2022/08/22 02:11:04;;;;;;;0.90;0.75;;;16.30;99.90;;;;;;4437108;32;20100;-69
2022/08/22 02:13:55;;;;;;;0.50;0.50;;;16.30;99.90;;;;;;4436445;32;20577;-68
2022/08/22 02:16:36;;;;;;;0.90;0.68;;;16.30;99.90;;;;;;4435828;32;20082;-69
2022/08/22 02:19:20;;;;;;;1.37;0.82;;;16.30;99.90;;;;;;4446854;32;20108;-69
2022/08/22 02:21:49;;;;;;;0.65;0.60;;;16.10;99.90;;;;;;4447469;32;20068;-69
2022/08/22 02:24:19;;;;;;;0.60;0.60;;;16.10;99.90;;;;;;4446741;32;20073;-69
2022/08/22 02:27:04;;;;;;;0.82;0.75;;;16.10;99.90;;;;;;4446509;32;20080;-69
2022/08/22 02:29:41;;;;;;;3.10;0.68;;;16.10;99.90;;;;;;4445534;32;20057;-69
2022/08/22 02:32:25;;;;;;;0.57;0.57;;;16.20;99.90;;;;;;4446220;32;20069;-69
2022/08/22 02:35:02;;;;;;;1.17;1.08;;;16.30;99.90;;;;;;4445502;32;20073;-69
2022/08/22 02:37:34;;;;;;;0.60;0.60;;;16.20;99.90;;;;;;4440494;32;20598;-69
2022/08/22 02:40:40;;;;;;;0.60;0.60;;;16.20;99.90;;;;;;4443717;32;20057;-69
2022/08/22 02:43:30;;;;;;;0.60;0.60;;;16.20;99.90;;;;;;4443800;32;20442;-69
2022/08/22 02:46:21;;;;;;;1.80;0.62;;;16.20;99.90;;;;;;4443571;32;20131;-69
2022/08/22 02:49:12;;;;;;;0.70;0.70;;;16.20;99.90;;;;;;4444664;32;20086;-69
2022/08/22 02:52:08;;;;;;;0.75;0.75;;;16.30;99.90;;;;;;4445089;32;20091;-69
2022/08/22 02:54:45;;;;;;;1.65;1.05;;;16.40;99.90;;;;;;4445098;32;20064;-70
2022/08/22 02:57:34;;;;;;;0.73;0.70;;;16.40;99.90;;;;;;4450250;32;20564;-69
2022/08/22 03:00:22;;;;;;;0.60;0.60;;;16.40;99.90;;;;;;4444346;32;20057;-69
2022/08/22 03:02:50;;;;;;;0.32;0.32;;;16.40;99.90;;;;;;4447609;32;20508;-69
2022/08/22 03:05:25;;;;;;;1.12;0.57;;;16.30;99.90;;;;;;4442783;32;20068;-69
2022/08/22 03:08:03;;;;;;;0.45;0.45;;;16.30;99.90;;;;;;4445151;32;20061;-69
2022/08/22 03:10:35;;;;;;;0.40;0.40;;;16.20;99.90;;;;;;4449831;32;20167;-69
2022/08/22 03:13:10;;;;;;;1.77;0.60;;;16.30;99.90;;;;;;4448643;32;20147;-69
2022/08/22 03:15:38;;;;;;;1.48;0.70;;;16.30;99.90;;;;;;4449051;32;20081;-69
2022/08/22 03:18:17;;;;;;;0.52;0.52;;;16.30;99.90;;;;;;4447346;32;20080;-69
2022/08/22 03:20:52;;;;;;;0.43;0.43;;;16.40;99.90;;;;;;4449549;32;20064;-69
2022/08/22 03:23:39;;;;;;;2.45;0.80;;;16.40;99.90;;;;;;4449963;32;20416;-70
2022/08/22 03:26:26;;;;;;;8.07;0.93;;;16.40;99.90;;;;;;4446956;32;20081;-69
2022/08/22 03:28:59;;;;;;;2.65;0.75;;;16.50;99.90;;;;;;4445849;32;20081;-69
2022/08/22 03:31:27;;;;;;;0.35;0.35;;;16.40;99.90;;;;;;4446904;32;20084;-69
2022/08/22 03:34:14;;;;;;;0.62;0.55;;;16.30;99.90;;;;;;4449646;32;20084;-69
2022/08/22 03:36:55;;;;;;;0.70;0.52;;;16.30;99.90;;;;;;4437218;32;20064;-69
2022/08/22 03:39:40;;;;;;;0.68;0.68;;;16.30;99.90;;;;;;4448525;32;20064;-70
2022/08/22 03:42:40;;;;;;;1.17;0.98;;;16.30;99.90;;;;;;4450754;32;20068;-69
2022/08/22 03:45:21;;;;;;;2.83;0.65;;;16.40;99.90;;;;;;4447636;32;20081;-70
2022/08/22 03:48:19;;;;;;;0.50;0.50;;;16.40;99.90;;;;;;4448974;32;20085;-69
2022/08/22 03:50:59;;;;;;;0.50;0.50;;;16.40;99.90;;;;;;4441788;32;20766;-69
2022/08/22 03:53:46;;;;;;;0.65;0.65;;;16.40;99.90;;;;;;4447669;32;20096;-69
2022/08/22 03:56:33;;;;;;;0.50;0.50;;;16.30;99.90;;;;;;4444138;32;20300;-69
2022/08/22 03:59:29;;;;;;;0.65;0.60;;;16.40;99.90;;;;;;4447613;32;20081;-69
2022/08/22 04:02:24;;;;;;;5.62;0.80;;;16.50;99.90;;;;;;4445394;32;20085;-69
2022/08/22 04:05:29;;;;;;;0.85;0.80;;;16.50;99.90;;;;;;4442542;32;20523;-69
2022/08/22 04:08:22;;;;;;;0.60;0.60;;;16.50;99.90;;;;;;4442658;32;20095;-69
2022/08/22 04:11:29;;;;;;;0.50;0.50;;;16.40;99.90;;;;;;4445325;32;20508;-69
2022/08/22 04:14:22;;;;;;;1.33;0.70;;;16.50;99.90;;;;;;4440313;32;20149;-69
2022/08/22 04:17:14;;;;;;;0.50;0.50;;;16.60;99.90;;;;;;4441914;32;20064;-69
2022/08/22 04:20:20;;;;;;;0.65;0.65;;;16.60;99.90;;;;;;4445733;32;20068;-69
2022/08/22 04:23:13;;;;;;;3.22;1.02;;;16.50;99.90;;;;;;4411354;32;20085;-69
2022/08/22 04:25:45;;;;;;;0.70;0.70;;;16.40;99.90;;;;;;4422597;32;20054;-69
2022/08/22 04:28:24;;;;;;;5.62;1.52;;;16.40;99.90;;;;;;4427416;32;20110;-69
2022/08/22 04:31:00;;;;;;;0.40;0.40;;;16.50;99.90;;;;;;4444740;32;21442;-69
2022/08/22 04:36:25;;;;;;;0.75;0.75;;;16.40;99.90;;;;;;4439971;32;20061;-69
2022/08/22 04:38:58;;;;;;;0.65;0.65;;;16.40;99.90;;;;;;4447069;32;20471;-69
2022/08/22 04:41:35;;;;;;;1.77;0.90;;;16.40;99.90;;;;;;4451145;32;20061;-69
2022/08/22 04:44:15;;;;;;;0.50;0.50;;;16.30;99.90;;;;;;4450568;32;20089;-69
2022/08/22 04:46:51;;;;;;;0.55;0.55;;;16.40;99.90;;;;;;4444130;32;20064;-69
2022/08/22 04:49:25;;;;;;;3.40;0.73;;;16.50;99.90;;;;;;4449277;32;20528;-69
2022/08/22 04:52:05;;;;;;;1.08;1.00;;;16.50;99.90;;;;;;4433803;32;20480;-69
2022/08/22 04:54:50;;;;;;;1.75;1.25;;;16.50;99.90;;;;;;4443585;32;20072;-69
2022/08/22 04:57:43;;;;;;;0.40;0.40;;;16.60;99.90;;;;;;4448932;32;20463;-69
2022/08/22 05:00:10;;;;;;;0.50;0.50;;;16.60;99.90;;;;;;4440078;32;20141;-69
2022/08/22 05:02:39;;;;;;;1.27;0.88;;;16.70;99.90;;;;;;4430929;32;20372;-69
2022/08/22 05:05:13;;;;;;;0.60;0.60;;;16.70;99.90;;;;;;4428891;32;20530;-69
2022/08/22 05:07:47;;;;;;;1.85;1.27;;;16.70;99.90;;;;;;4426346;32;20505;-69
2022/08/22 05:10:25;;;;;;;0.93;0.70;;;16.70;99.90;;;;;;4426515;32;20097;-69
2022/08/22 05:12:59;;;;;;;2.37;1.48;;;16.80;99.90;;;;;;4436803;32;20107;-69
2022/08/22 05:15:32;;;;;;;0.40;0.40;;;16.80;99.90;;;;;;4445586;32;20069;-69
2022/08/22 05:18:05;;;;;;;0.50;0.50;;;16.90;99.90;;;;;;4389464;32;20469;-69
2022/08/22 05:20:31;;;;;;;0.82;0.82;;;16.90;99.90;;;;;;4393437;32;20134;-69
2022/08/22 05:23:04;;;;;;;0.60;0.60;;;17.00;99.90;;;;;;4417068;32;20088;-69
2022/08/22 05:25:33;;;;;;;1.08;0.62;;;17.00;99.90;;;;;;4411713;32;20073;-69
2022/08/22 05:28:23;;;;;;;0.62;0.62;;;17.10;99.90;;;;;;4417141;32;20564;-69
2022/08/22 05:30:50;;;;;;;0.75;0.75;;;17.10;99.90;;;;;;4394261;32;20603;-70
2022/08/22 05:33:31;;;;;;;3.87;1.00;;;17.10;99.90;;;;;;4400792;32;20108;-70
2022/08/22 05:36:23;;;;;;;1.45;0.82;;;17.20;99.90;;;;;;4411000;32;20804;-69
2022/08/22 05:38:54;;;;;;;0.65;0.65;;;17.20;99.90;;;;;;4413054;32;20608;-70
2022/08/22 05:41:25;;;;;;;2.00;1.58;;;17.30;99.90;;;;;;4429049;32;20197;-70
2022/08/22 05:43:52;;;;;;;1.48;0.70;;;17.30;99.90;;;;;;4426589;32;20080;-71
2022/08/22 05:46:24;;;;;;;1.00;0.85;;;17.40;99.90;;;;;;4423449;32;20089;-70
2022/08/22 05:49:02;;;;;;;1.75;0.95;;;17.40;99.90;;;;;;4416755;32;20065;-70
2022/08/22 05:51:54;;;;;;;0.47;0.47;;;17.50;99.90;;;;;;4425109;32;20220;-70
2022/08/22 05:54:29;;;;;;;2.78;1.33;;;17.50;99.90;;;;;;4420887;32;20313;-70
2022/08/22 05:57:21;;;;;;;0.50;0.50;;;17.70;99.90;;;;;;4426588;32;20313;-70
2022/08/22 05:59:53;;;;;;;1.85;0.98;;;17.80;99.90;;;;;;4411722;32;20107;-70
2022/08/22 06:02:28;;;;;;;1.70;0.93;;;17.90;99.90;;;;;;4416759;32;20204;-70
2022/08/22 06:04:59;;;;;;;0.55;0.55;;;18.00;99.90;;;;;;4421780;32;20329;-70
2022/08/22 06:07:32;;;;;;;0.62;0.62;;;18.00;99.90;;;;;;4425045;32;20859;-70
2022/08/22 06:10:13;;;;;;;0.50;0.50;;;18.10;99.90;;;;;;4419735;32;20081;-70
2022/08/22 06:12:41;;;;;;;;;;;18.10;99.90;;;;;;4423710;32;20220;-70
2022/08/22 06:15:21;;;;;;;2.55;0.50;;;18.10;99.90;;;;;;4429487;32;20640;-70
2022/08/22 06:17:56;;;;;;;1.85;1.27;;;18.20;99.90;;;;;;4423600;32;20204;-70
2022/08/22 06:20:41;;;;;;;0.50;0.50;;;18.30;99.90;;;;;;4426752;32;20165;-70
2022/08/22 06:23:10;;;;;;;1.92;1.10;;;18.40;99.90;;;;;;4428206;32;20076;-70
2022/08/22 06:25:38;;;;;;;0.50;0.50;;;18.50;99.90;;;;;;4434750;32;20643;-69
2022/08/22 06:28:09;;;;;;;0.80;0.80;;;18.60;99.90;;;;;;4426867;32;20345;-67
2022/08/22 06:30:38;;;;;;;0.50;0.50;;;18.70;99.90;;;;;;4421337;32;20586;-69
2022/08/22 06:33:10;;;;;;;0.75;0.50;;;18.80;99.90;;;;;;4428349;32;20440;-69
2022/08/22 06:36:36;;;;;;;1.58;1.00;;;18.80;99.90;;;;;;4442326;32;20121;-69
2022/08/22 06:38:32;;;;;;;0.90;0.70;;;18.80;99.90;;;;;;4426432;32;20120;-68
2022/08/22 06:41:01;;;;;;;0.65;0.65;;;18.80;99.90;;;;;;4442320;32;20135;-71
2022/08/22 06:43:41;;;;;;;0.77;0.77;;;18.80;99.90;;;;;;4439614;32;20085;-67
2022/08/22 06:46:07;;;;;;;0.68;0.68;;;18.70;99.90;;;;;;4425507;32;20208;-68
2022/08/22 06:48:35;;;;;;;1.45;0.70;;;18.80;99.90;;;;;;4426954;32;20241;-69
2022/08/22 06:51:01;;;;;;;0.60;0.60;;;18.90;99.90;;;;;;4441530;32;20077;-69
2022/08/22 06:53:34;;;;;;;5.50;1.05;;;18.90;99.90;;;;;;4439921;32;20085;-69
2022/08/22 06:56:04;;;;;;;1.17;1.08;;;19.00;99.90;;;;;;4444594;32;20570;-69
2022/08/22 06:58:36;;;;;;;1.02;0.90;;;19.10;99.90;;;;;;4427964;32;21625;-69
2022/08/22 07:01:08;;;;;;;0.60;0.60;;;19.20;99.90;;;;;;4434010;32;20061;-69
2022/08/22 07:03:38;;;;;;;0.50;0.50;;;19.20;99.90;;;;;;4427352;32;20069;-69
2022/08/22 07:06:04;;;;;;;1.35;0.80;;;19.30;99.90;;;;;;4436693;32;20261;-68
2022/08/22 07:08:33;;;;;;;0.60;0.47;;;19.30;99.90;;;;;;4437085;32;20072;-68
2022/08/22 07:11:20;;;;;;;0.57;0.57;;;19.30;99.90;;;;;;4425241;32;20231;-70
2022/08/22 07:13:57;;;;;;;0.68;0.50;;;19.40;99.90;;;;;;4437212;32;20081;-69
2022/08/22 07:16:31;;;;;;;0.82;0.60;;;19.50;99.90;;;;;;4427792;32;20980;-68
2022/08/22 07:18:57;;;;;;;0.95;0.73;;;19.60;99.90;;;;;;4409380;32;20116;-68
2022/08/22 07:21:26;;;;;;;1.77;1.02;;;19.70;99.90;;;;;;4418325;32;21115;-69
2022/08/22 07:23:53;;;;;;;0.80;0.77;;;19.70;99.90;;;;;;4437237;32;20097;-67
2022/08/22 07:26:29;;;;;;;0.60;0.60;;;19.80;99.90;;;;;;4440029;32;20793;-67
2022/08/22 07:29:01;;;;;;;0.40;0.40;;;19.90;99.90;;;;;;4412161;32;20096;-67
2022/08/22 07:31:41;;;;;;;0.40;0.40;;;20.00;99.90;;;;;;4434822;32;20093;-67
2022/08/22 07:34:28;;;;;;;0.68;0.68;;;20.10;99.90;;;;;;4411359;32;20920;-64
2022/08/22 07:37:05;;;;;;;3.00;0.77;;;20.10;99.90;;;;;;4417894;32;20073;-66
2022/08/22 07:39:41;;;;;;;2.72;0.85;;;20.20;99.90;;;;;;4417819;32;20531;-65
2022/08/22 07:42:18;;;;;;;1.00;0.60;;;20.30;99.90;;;;;;4429774;32;20074;-68
2022/08/22 07:45:05;;;;;;;5.07;1.85;;;20.40;99.90;;;;;;4424558;32;20420;-67
2022/08/22 07:47:59;;;;;;;1.02;0.70;;;20.40;99.90;;;;;;4429708;32;20236;-67
2022/08/22 07:50:29;;;;;;;0.65;0.65;;;20.50;99.90;;;;;;4418577;32;20088;-68
2022/08/22 07:53:06;;;;;;;1.48;0.95;;;20.70;99.90;;;;;;4428068;32;20101;-67
2022/08/22 07:55:34;;;;;;;1.35;1.05;;;20.70;99.90;;;;;;4434153;32;20065;-68
2022/08/22 07:58:04;;;;;;;0.80;0.70;;;20.90;99.90;;;;;;4433084;32;20110;-68
2022/08/22 08:00:31;;;;;;;0.77;0.77;;;20.90;99.90;;;;;;4430443;32;20094;-68
2022/08/22 08:03:01;;;;;;;1.05;0.95;;;21.10;99.90;;;;;;4413665;32;20201;-68
2022/08/22 08:05:31;;;;;;;0.40;0.40;;;21.20;99.90;;;;;;4422334;32;20110;-68
2022/08/22 08:08:00;;;;;;;1.08;0.88;;;21.40;99.90;;;;;;4435148;32;20135;-68
2022/08/22 08:10:30;;;;;;;12.20;1.40;;;21.50;99.90;;;;;;4440071;32;20069;-68
2022/08/22 08:12:59;;;;;;;0.90;0.37;;;21.60;99.90;;;;;;4436634;32;20165;-68
2022/08/22 08:15:25;;;;;;;1.48;1.08;;;21.70;99.90;;;;;;4431475;32;20069;-68
2022/08/22 08:17:57;;;;;;;0.30;0.30;;;21.80;99.90;;;;;;4428739;32;20217;-68
2022/08/22 08:20:25;;;;;;;0.45;0.45;;;22.00;99.90;;;;;;4423025;32;20831;-68
2022/08/22 08:22:52;;;;;;;0.43;0.37;;;22.10;99.90;;;;;;4432524;32;20097;-68
2022/08/22 08:25:23;;;;;;;1.00;0.68;;;22.20;99.90;;;;;;4434208;32;20104;-68
2022/08/22 08:28:50;;;;;;;;;;;22.20;99.90;;;;;;4425623;32;20081;-68
2022/08/22 08:30:44;;;;;;;0.28;0.28;;;22.30;99.90;;;;;;4411487;32;21232;-68
2022/08/22 08:33:16;;;;;;;0.30;0.30;;;22.30;99.90;;;;;;4399032;32;80720;-68
2022/08/22 08:35:51;;;;;;;0.40;0.40;;;22.40;99.90;;;;;;4405399;32;20179;-68
2022/08/22 08:38:21;;;;;;;0.80;0.80;;;22.50;99.90;;;;;;4411749;32;20179;-68
2022/08/22 08:41:07;;;;;;;;;;;22.60;99.90;;;;;;4397323;32;20106;-68
2022/08/22 08:43:47;;;;;;;0.80;0.68;;;22.60;99.90;;;;;;4404981;32;19947;-68
2022/08/22 08:46:44;;;;;;;0.30;0.30;;;22.70;99.90;;;;;;4418475;32;20127;-67
2022/08/22 08:49:17;;;;;;;0.37;0.37;;;22.70;99.90;;;;;;4393206;32;20090;-69
2022/08/22 08:52:06;;;;;;;0.20;0.20;;;22.70;99.90;;;;;;4419920;32;20506;-67
2022/08/22 08:54:54;;;;;;;3.10;1.58;;;22.70;99.90;;;;;;4419352;32;20069;-66
2022/08/22 08:57:47;;;;;;;0.20;0.20;;;22.70;99.90;;;;;;4423063;32;20655;-68
2022/08/22 09:00:20;;;;;;;1.10;1.02;;;22.80;99.90;;;;;;4418659;32;20112;-69
2022/08/22 09:02:51;;;;;;;0.43;0.43;;;22.80;99.90;;;;;;4402072;32;20145;-68
2022/08/22 09:05:36;;;;;;;;;;;22.80;99.90;;;;;;4413813;32;20863;-68
2022/08/22 09:08:41;;;;;;;0.20;0.20;;;22.80;99.90;;;;;;4397856;32;19983;-68
2022/08/22 09:11:46;;;;;;;6.87;0.60;;;22.70;99.90;;;;;;4391563;32;20493;-69
2022/08/22 09:14:26;;;;;;;0.40;0.40;;;22.80;99.90;;;;;;4381727;32;20140;-66
2022/08/22 09:17:23;;;;;;;0.28;0.28;;;23.00;99.90;;;;;;4407826;32;20858;-66
2022/08/22 09:20:02;;;;;;;0.65;0.60;;;23.10;99.90;;;;;;4383616;32;20194;-67
2022/08/22 09:22:52;;;;;;;0.32;0.32;;;23.20;99.90;;;;;;4393010;32;20081;-69
2022/08/22 09:25:24;;;;;;;0.20;0.20;;;23.20;99.90;;;;;;4378114;32;20679;-66
2022/08/22 09:28:13;;;;;;;0.25;0.25;;;23.30;99.90;;;;;;4394572;32;20069;-68
2022/08/22 09:31:09;;;;;;;0.95;0.77;;;23.30;99.90;;;;;;4371036;32;20105;-68
2022/08/22 09:34:02;;;;;;;0.35;0.35;;;23.40;99.90;;;;;;4379995;32;20123;-68
2022/08/22 09:37:03;;;;;;;0.20;0.20;;;23.30;99.90;;;;;;4403188;32;20058;-66
2022/08/22 09:39:42;;;;;;;0.40;0.40;;;23.40;99.90;;;;;;4393767;32;20109;-67
2022/08/22 09:42:21;;;;;;;1.25;0.82;;;23.40;99.90;;;;;;4395382;32;20619;-67
2022/08/22 09:45:11;;;;;;;0.30;0.30;;;23.40;99.90;;;;;;4388381;32;20085;-68
2022/08/22 09:47:49;;;;;;;0.50;0.50;;;23.50;99.90;;;;;;4383312;32;21735;-68
2022/08/22 09:50:29;;;;;;;0.32;0.32;;;23.50;99.90;;;;;;4401801;32;20122;-68
2022/08/22 09:53:12;;;;;;;0.20;0.20;;;23.50;99.90;;;;;;4402925;32;20462;-68
2022/08/22 09:56:09;;;;;;;0.47;0.47;;;23.60;99.90;;;;;;4411196;32;20077;-68
2022/08/22 09:58:42;;;;;;;2.60;0.50;;;23.70;99.90;;;;;;4392080;32;20321;-68
2022/08/22 10:01:15;;;;;;;7.62;1.23;;;23.80;99.90;;;;;;4404827;32;20139;-67
2022/08/22 10:04:05;;;;;;;0.32;0.32;;;23.90;99.90;;;;;;4402361;32;20233;-68
2022/08/22 10:06:43;;;;;;;0.70;0.43;;;24.00;99.90;;;;;;4398689;32;20061;-68
2022/08/22 10:09:21;;;;;;;0.10;0.10;;;24.00;99.90;;;;;;4388501;32;20093;-68
2022/08/22 10:11:59;;;;;;;0.20;0.20;;;24.00;99.90;;;;;;4411307;32;20061;-68
2022/08/22 10:14:43;;;;;;;0.40;0.40;;;24.10;99.90;;;;;;4398756;32;20532;-68
2022/08/22 10:17:19;;;;;;;0.20;0.20;;;24.30;99.90;;;;;;4394170;32;20119;-67
2022/08/22 10:19:50;;;;;;;2.92;1.08;;;24.40;99.90;;;;;;4387457;32;20397;-67
2022/08/22 10:22:39;;;;;;;0.10;0.10;;;24.40;99.90;;;;;;4400875;32;20138;-68
2022/08/22 10:25:26;;;;;;;0.52;0.52;;;24.50;99.90;;;;;;4395466;32;21776;-68
2022/08/22 10:28:15;;;;;;;0.20;0.20;;;24.50;99.90;;;;;;4394730;32;20105;-67
2022/08/22 10:31:08;;;;;;;0.25;0.25;;;24.50;99.90;;;;;;4387118;32;20167;-66
2022/08/22 10:33:49;;;;;;;0.28;0.28;;;24.90;99.90;;;;;;4388718;32;20293;-66
2022/08/22 10:36:26;;;;;;;4.22;1.20;;;24.90;99.90;;;;;;4396412;32;20077;-66
2022/08/22 10:38:56;;;;;;;0.62;0.47;;;24.80;99.90;;;;;;4404941;32;20089;-66
2022/08/22 10:42:01;;;;;;;0.30;0.30;;;24.80;99.90;;;;;;4386340;32;20097;-66
2022/08/22 10:44:53;;;;;;;0.10;0.10;;;24.80;99.10;;;;;;4386641;32;20210;-66
2022/08/22 10:47:34;;;;;;;0.10;0.10;;;24.80;99.10;;;;;;4396556;32;20106;-69
2022/08/22 10:50:10;;;;;;;0.30;0.30;;;24.80;99.20;;;;;;4384718;32;20126;-67
2022/08/22 10:52:46;;;;;;;0.15;0.15;;;24.70;99.90;;;;;;4404152;32;20952;-68
2022/08/22 10:55:18;;;;;;;0.28;0.28;;;24.80;99.90;;;;;;4395176;32;20654;-66
2022/08/22 10:57:59;;;;;;;0.10;0.10;;;24.90;99.90;;;;;;4391632;32;20705;-67
2022/08/22 11:00:58;;;;;;;0.28;0.28;;;25.00;97.90;;;;;;4399858;32;20630;-68
2022/08/22 11:03:29;;;;;;;0.10;0.10;;;25.00;98.70;;;;;;4377922;32;20493;-67
2022/08/22 11:05:59;;;;;;;0.20;0.20;;;24.90;97.70;;;;;;4406759;32;20398;-68
2022/08/22 11:08:54;;;;;;;3.00;0.45;;;24.90;97.30;;;;;;4396876;32;20058;-68
2022/08/22 11:11:48;;;;;;;0.20;0.20;;;25.10;98.80;;;;;;4398370;32;21134;-67
2022/08/22 11:14:46;;;;;;;0.20;0.20;;;25.00;97.90;;;;;;4391562;32;20457;-67
2022/08/22 11:17:51;;;;;;;2.37;0.32;;;25.20;97.20;;;;;;4382864;32;20490;-67
2022/08/22 11:20:25;;;;;;;2.50;0.60;;;25.50;99.00;;;;;;4374765;32;20093;-67
2022/08/22 11:23:20;;;;;;;0.22;0.22;;;25.70;96.90;;;;;;4403630;32;20104;-68
2022/08/22 11:26:18;;;;;;;0.17;0.17;;;25.90;95.40;;;;;;4383848;32;20726;-67
2022/08/22 11:29:00;;;;;;;0.13;0.13;;;26.30;95.40;;;;;;4383233;32;20105;-67
2022/08/22 11:31:42;;;;;;;0.22;0.22;;;26.40;94.40;;;;;;4412911;32;20092;-68
2022/08/22 11:34:35;;;;;;;0.10;0.10;;;26.40;93.50;;;;;;4420383;32;20551;-67
2022/08/22 11:37:16;;;;;;;0.10;0.10;;;26.10;94.80;;;;;;4397968;32;20101;-69
2022/08/22 11:40:00;;;;;;;0.10;0.10;;;25.90;93.70;;;;;;4418920;32;20148;-68
2022/08/22 11:42:41;;;;;;;0.20;0.20;;;25.80;94.30;;;;;;4408185;32;20223;-67
2022/08/22 11:45:09;;;;;;;0.40;0.40;;;25.80;96.80;;;;;;4405847;32;20595;-66
2022/08/22 11:47:49;;;;;;;2.60;0.90;;;26.00;94.80;;;;;;4415804;32;20477;-65
2022/08/22 11:50:38;;;;;;;0.68;0.52;;;26.20;94.60;;;;;;4421574;32;20319;-65
2022/08/22 11:53:33;;;;;;;0.30;0.30;;;26.40;93.60;;;;;;4425145;32;20587;-65
2022/08/22 11:56:27;;;;;;;0.15;0.15;;;26.40;92.60;;;;;;4418830;32;20559;-65
2022/08/22 11:59:09;;;;;;;0.10;0.10;;;26.40;92.50;;;;;;4408048;32;20162;-65
2022/08/22 12:01:42;;;;;;;0.10;0.10;;;26.40;93.20;;;;;;4428084;32;20423;-66
2022/08/22 12:04:17;;;;;;;0.20;0.20;;;26.40;94.30;;;;;;4419426;32;20579;-66
2022/08/22 12:07:09;;;;;;;0.15;0.15;;;26.30;93.40;;;;;;4423599;32;20139;-65
2022/08/22 12:09:45;;;;;;;0.00;0.00;;;26.10;93.30;;;;;;4419625;32;20088;-65
2022/08/22 12:12:22;;;;;;;0.22;0.20;;;25.70;93.80;;;;;;4428527;32;20881;-65
2022/08/22 12:15:09;;;;;;;0.73;0.30;;;25.60;96.00;;;;;;4428434;32;20427;-67
2022/08/22 12:17:54;;;;;;;0.10;0.10;;;25.60;93.90;;;;;;4410459;32;20560;-65
2022/08/22 12:20:55;;;;;;;0.20;0.20;;;25.70;94.20;;;;;;4410236;32;20859;-66
2022/08/22 12:23:58;;;;;;;0.22;0.15;;;25.90;94.50;;;;;;4418356;32;20655;-65
2022/08/22 12:26:49;;;;;;;9.43;0.50;;;25.90;95.90;;;;;;4417921;32;20136;-65
2022/08/22 12:29:40;;;;;;;2.37;0.15;;;25.80;95.00;;;;;;4413569;32;20163;-65
2022/08/22 12:32:32;;;;;;;0.10;0.10;;;25.70;95.10;;;;;;4420464;32;20444;-65
2022/08/22 12:35:22;;;;;;;1.23;0.40;;;26.00;95.80;;;;;;4411752;32;20158;-65
2022/08/22 12:37:53;;;;;;;;;;;25.90;94.30;;;;;;4422551;32;20211;-65
2022/08/22 12:40:29;;;;;;;0.30;0.30;;;26.00;94.40;;;;;;4421487;32;20368;-66
2022/08/22 12:43:12;;;;;;;0.10;0.10;;;26.10;93.10;;;;;;4427722;32;20113;-66
2022/08/22 12:46:04;;;;;;;0.10;0.10;;;26.40;93.90;;;;;;4433608;32;20081;-66
2022/08/22 12:48:55;;;;;;;0.30;0.20;;;26.80;94.10;;;;;;4417854;32;20418;-67
2022/08/22 12:51:29;;;;;;;0.10;0.10;;;26.90;92.60;;;;;;4425451;32;20105;-66
2022/08/22 12:54:06;;;;;;;0.10;0.10;;;27.20;93.50;;;;;;4427808;32;20097;-66
2022/08/22 12:56:48;;;;;;;0.10;0.10;;;27.40;92.50;;;;;;4435154;32;21629;-66
2022/08/22 12:59:36;;;;;;;0.10;0.10;;;27.30;92.20;;;;;;4424816;32;20073;-66
2022/08/22 13:02:14;;;;;;;0.10;0.10;;;27.20;92.60;;;;;;4425197;32;20167;-67
2022/08/22 13:04:53;;;;;;;0.20;0.20;;;27.00;93.50;;;;;;4430374;32;20146;-66
2022/08/22 13:07:29;;;;;;;0.17;0.17;;;27.40;92.80;;;;;;4428576;32;20056;-66
2022/08/22 13:10:02;;;;;;;2.22;0.20;;;27.80;93.20;;;;;;4434810;32;20068;-67
2022/08/22 13:12:33;;;;;;;0.15;0.15;;;27.80;90.70;;;;;;4429286;32;20098;-67
2022/08/22 13:15:25;;;;;;;0.15;0.15;;;27.80;90.10;;;;;;4429772;32;20145;-67
2022/08/22 13:17:51;;;;;;;0.10;0.10;;;27.50;91.10;;;;;;4425586;32;20106;-67
2022/08/22 13:20:24;;;;;;;1.17;0.52;;;27.30;90.60;;;;;;4431890;32;20328;-66
2022/08/22 13:22:50;;;;;;;0.20;0.20;;;27.20;90.20;;;;;;4433740;32;20073;-68
2022/08/22 13:25:26;;;;;;;0.10;0.10;;;26.90;90.70;;;;;;4432776;32;20652;-68
2022/08/22 13:27:56;;;;;;;0.40;0.28;;;26.70;90.60;;;;;;4430060;32;20132;-68
2022/08/22 13:30:29;;;;;;;0.20;0.20;;;26.50;90.90;;;;;;4424786;32;20073;-69
2022/08/22 13:33:03;;;;;;;1.92;0.45;;;26.30;92.70;;;;;;4423580;32;20162;-68
2022/08/22 13:35:34;;;;;;;0.30;0.30;;;26.20;92.00;;;;;;4431976;32;20125;-69
2022/08/22 13:38:06;;;;;;;0.10;0.10;;;26.10;91.00;;;;;;4432987;32;20517;-69
2022/08/22 13:40:34;;;;;;;0.10;0.10;;;26.00;92.60;;;;;;4439076;32;20061;-69
2022/08/22 13:43:04;;;;;;;0.10;0.10;;;25.90;91.70;;;;;;4439158;32;20285;-69
2022/08/22 13:45:32;;;;;;;0.55;0.55;;;25.80;91.20;;;;;;4439391;32;20187;-68
2022/08/22 13:48:05;;;;;;;0.10;0.10;;;25.60;92.00;;;;;;4410874;32;20093;-68
2022/08/22 13:50:33;;;;;;;1.23;0.28;;;25.60;91.30;;;;;;4396432;32;20084;-68
2022/08/22 13:53:03;;;;;;;0.20;0.10;;;25.60;92.50;;;;;;4402771;32;20105;-68
2022/08/22 13:55:49;;;;;;;0.15;0.15;;;25.50;93.00;;;;;;4433104;32;20270;-68
2022/08/22 13:58:40;;;;;;;0.13;0.13;;;25.40;92.00;;;;;;4435157;32;20061;-68
2022/08/22 14:01:16;;;;;;;0.88;0.73;;;25.50;92.40;;;;;;4436801;32;20085;-68